Accueil
METAR-TAF:

METAR-TAF

Aéroports :

Aéroport d'Oxford Kidlington

Oxford, Angleterre

latitude: 51-50-13N, longitude: 1-19-12W, altitude: 82 m

Observation

Le bulletin a été fait il y a 20 minutes, à 18:50 UTC
Vent 9 kt de ouest, variant entre ouest/sud-ouest et nord-ouest
Température 19°C
Humidité 73%
Pression 1019 hPa
Visibilité 10 km ou plus
Nuages épars à une hauteur de 2500 ft
Nuages épars à une hauteur de 2800 ft

METAR: EGTK 201850Z 28009KT 250V320 9999 SCT025 SCT028 19/14 Q1019

Heure: 20:10 (19:10 UTC)

Prévision

Le bulletin a été fait il y a 2 heures et 13 minutes, à 16:57 UTC
Prévision valable du 20 à 18 UTC au 20 à 22 UTC
Vent 9 kt de ouest
Visibilité 10 km ou plus
Nuages épars à une hauteur de 4000 ft

TAF: EGTK 201657Z 2018/2022 27009KT 9999 SCT040

Observations et prévisions météorologiques de plus de 4000 aéroports (messages METAR et TAF).

Les stations disponibles sont représentées par des disques jaunes et rouges sur la carte.

Passer la souris dessus pour voir le nom de la station.

Cliquer dessus pour voir les observations et prévisions météorologiques.

Pour changer de carte: cliquez sur les boutons verts avec une croix noire pour zoomer, sur le bouton vert avec un tiret pour effectuer un zoom arrière, ou sur les flèches vertes pour les cartes adjacentes.


METAR-TAF: